Owen Sound, Canada
Current Conditions -  °F | °C
As of 12:00 PM on Saturday 25 Oct 2014 (Local Time) from CYVV Reporting Station
Overcast Overcast  
Wind Chill: 54°   Ceiling: 700
Heat Index: 54°   Visibility: 8mi
Dew Point: 50°   Wind: 13mph
Humidity: 88%   Direction: 260°W
Pressure: 29.63"   Gusts: 23mph
Location:  44.56°N, 80.94°W
Report Text: CYVV 251600Z 26011G20KT 8SM OVC007 12/10 A2963 RMK SF8 SLP036
Loading
Personal Weather Stations






























Interactive Weather Map
Tropical Storm Tracking
New forecast layout! Learn more

10-Day Weather Forecast

Advertisements
Track Severe Weather on mobile